Terminal Aerodrome Forecast
Issued by NWS

Home | Current Version | Previous Version | Graphics & Text | Print | Product List | Glossary On
Versions: 1 2 3 4 5 6 7 8 9 10 11 12 13 14 15 16 17 18 19 20 21 22 23 24 25 26 27 28
000
FTUS43 KGRB 181300 AAA
TAFATW
TAF AMD
KATW 181359Z 1814/1912 17003KT P6SM SCT008 BKN025
      TEMPO 1814/1817 3SM SHRA
     FM182100 17007KT P6SM VCTS SCT020CB BKN035
      TEMPO 1821/1901 3SM -SHRA BKN020
     FM190300 17003KT 3SM BR VCSH BKN014=

USA.gov is the U.S. government's official web portal to all federal, state and local government web resources and services.